sensor_id;sensor_type;location;lat;lon;timestamp;temperature;humidity
17236;DHT22;8734;59.272;17.780;2023-07-28T00:00:12;13.40;99.90
17236;DHT22;8734;59.272;17.780;2023-07-28T00:02:40;13.40;99.90
17236;DHT22;8734;59.272;17.780;2023-07-28T00:05:09;13.40;99.90
17236;DHT22;8734;59.272;17.780;2023-07-28T00:07:38;13.30;99.90
17236;DHT22;8734;59.272;17.780;2023-07-28T00:10:07;13.30;99.90
17236;DHT22;8734;59.272;17.780;2023-07-28T00:12:35;13.20;99.90
17236;DHT22;8734;59.272;17.780;2023-07-28T00:15:05;13.20;99.90
17236;DHT22;8734;59.272;17.780;2023-07-28T00:17:33;13.20;99.90
17236;DHT22;8734;59.272;17.780;2023-07-28T00:20:02;13.10;99.90
17236;DHT22;8734;59.272;17.780;2023-07-28T00:22:30;13.10;99.90
17236;DHT22;8734;59.272;17.780;2023-07-28T00:25:00;13.00;99.90
17236;DHT22;8734;59.272;17.780;2023-07-28T00:27:28;13.10;99.90
17236;DHT22;8734;59.272;17.780;2023-07-28T00:29:56;13.00;99.90
17236;DHT22;8734;59.272;17.780;2023-07-28T00:32:24;13.00;99.90
17236;DHT22;8734;59.272;17.780;2023-07-28T00:34:53;12.90;99.90
17236;DHT22;8734;59.272;17.780;2023-07-28T00:37:21;12.90;99.90
17236;DHT22;8734;59.272;17.780;2023-07-28T00:39:49;12.90;99.90
17236;DHT22;8734;59.272;17.780;2023-07-28T00:42:19;12.90;99.90
17236;DHT22;8734;59.272;17.780;2023-07-28T00:44:47;12.90;99.90
17236;DHT22;8734;59.272;17.780;2023-07-28T00:47:15;12.90;99.90
17236;DHT22;8734;59.272;17.780;2023-07-28T00:49:44;12.80;99.90
17236;DHT22;8734;59.272;17.780;2023-07-28T00:52:13;12.80;99.90
17236;DHT22;8734;59.272;17.780;2023-07-28T00:54:41;12.90;99.90
17236;DHT22;8734;59.272;17.780;2023-07-28T00:57:10;12.90;99.90
17236;DHT22;8734;59.272;17.780;2023-07-28T00:59:39;12.90;99.90
17236;DHT22;8734;59.272;17.780;2023-07-28T01:02:08;12.90;99.90
17236;DHT22;8734;59.272;17.780;2023-07-28T01:04:36;12.90;99.90
17236;DHT22;8734;59.272;17.780;2023-07-28T01:07:10;12.90;99.90
17236;DHT22;8734;59.272;17.780;2023-07-28T01:09:43;12.90;99.90
17236;DHT22;8734;59.272;17.780;2023-07-28T01:12:14;12.90;99.90
17236;DHT22;8734;59.272;17.780;2023-07-28T01:14:44;12.90;99.90
17236;DHT22;8734;59.272;17.780;2023-07-28T01:17:13;12.90;99.90
17236;DHT22;8734;59.272;17.780;2023-07-28T01:19:41;12.80;99.90
17236;DHT22;8734;59.272;17.780;2023-07-28T01:25:17;12.80;99.90
17236;DHT22;8734;59.272;17.780;2023-07-28T01:27:48;12.80;99.90
17236;DHT22;8734;59.272;17.780;2023-07-28T01:30:18;12.80;99.90
17236;DHT22;8734;59.272;17.780;2023-07-28T01:32:48;12.80;99.90
17236;DHT22;8734;59.272;17.780;2023-07-28T01:35:16;12.80;99.90
17236;DHT22;8734;59.272;17.780;2023-07-28T01:37:45;12.80;99.90
17236;DHT22;8734;59.272;17.780;2023-07-28T01:40:17;12.80;99.90
17236;DHT22;8734;59.272;17.780;2023-07-28T01:42:47;12.90;99.90
17236;DHT22;8734;59.272;17.780;2023-07-28T01:45:16;12.90;99.90
17236;DHT22;8734;59.272;17.780;2023-07-28T01:47:44;12.90;99.90
17236;DHT22;8734;59.272;17.780;2023-07-28T01:50:12;12.90;99.90
17236;DHT22;8734;59.272;17.780;2023-07-28T01:52:41;12.90;99.90
17236;DHT22;8734;59.272;17.780;2023-07-28T01:55:09;12.90;99.90
17236;DHT22;8734;59.272;17.780;2023-07-28T01:57:38;12.90;99.90
17236;DHT22;8734;59.272;17.780;2023-07-28T02:00:09;12.90;99.90
17236;DHT22;8734;59.272;17.780;2023-07-28T02:02:38;12.90;99.90
17236;DHT22;8734;59.272;17.780;2023-07-28T02:05:06;12.90;99.90
17236;DHT22;8734;59.272;17.780;2023-07-28T02:07:35;13.00;99.90
17236;DHT22;8734;59.272;17.780;2023-07-28T02:10:04;13.00;99.90
17236;DHT22;8734;59.272;17.780;2023-07-28T02:12:32;13.00;99.90
17236;DHT22;8734;59.272;17.780;2023-07-28T02:15:00;13.00;99.90
17236;DHT22;8734;59.272;17.780;2023-07-28T02:17:30;13.00;99.90
17236;DHT22;8734;59.272;17.780;2023-07-28T02:19:58;13.00;99.90
17236;DHT22;8734;59.272;17.780;2023-07-28T02:22:28;13.10;99.90
17236;DHT22;8734;59.272;17.780;2023-07-28T02:24:56;13.10;99.90
17236;DHT22;8734;59.272;17.780;2023-07-28T02:27:27;13.10;99.90
17236;DHT22;8734;59.272;17.780;2023-07-28T02:29:55;13.10;99.90
17236;DHT22;8734;59.272;17.780;2023-07-28T02:32:24;13.10;99.90
17236;DHT22;8734;59.272;17.780;2023-07-28T02:34:53;13.10;99.90
17236;DHT22;8734;59.272;17.780;2023-07-28T02:37:22;13.20;99.90
17236;DHT22;8734;59.272;17.780;2023-07-28T02:39:50;13.20;99.90
17236;DHT22;8734;59.272;17.780;2023-07-28T02:42:18;13.20;99.90
17236;DHT22;8734;59.272;17.780;2023-07-28T02:44:47;13.30;99.90
17236;DHT22;8734;59.272;17.780;2023-07-28T02:47:15;13.30;99.90
17236;DHT22;8734;59.272;17.780;2023-07-28T02:49:44;13.30;99.90
17236;DHT22;8734;59.272;17.780;2023-07-28T02:52:13;13.40;99.90
17236;DHT22;8734;59.272;17.780;2023-07-28T02:54:42;13.40;99.90
17236;DHT22;8734;59.272;17.780;2023-07-28T02:57:10;13.50;99.90
17236;DHT22;8734;59.272;17.780;2023-07-28T02:59:38;13.60;99.90
17236;DHT22;8734;59.272;17.780;2023-07-28T03:02:07;13.60;99.90
17236;DHT22;8734;59.272;17.780;2023-07-28T03:04:35;13.70;99.90
17236;DHT22;8734;59.272;17.780;2023-07-28T03:07:03;13.70;99.90
17236;DHT22;8734;59.272;17.780;2023-07-28T03:09:33;13.70;99.90
17236;DHT22;8734;59.272;17.780;2023-07-28T03:12:02;13.80;99.90
17236;DHT22;8734;59.272;17.780;2023-07-28T03:14:32;13.90;99.90
17236;DHT22;8734;59.272;17.780;2023-07-28T03:17:00;13.90;99.90
17236;DHT22;8734;59.272;17.780;2023-07-28T03:19:29;14.00;99.90
17236;DHT22;8734;59.272;17.780;2023-07-28T03:21:57;14.00;99.90
17236;DHT22;8734;59.272;17.780;2023-07-28T03:24:25;14.10;99.90
17236;DHT22;8734;59.272;17.780;2023-07-28T03:26:55;14.10;99.90
17236;DHT22;8734;59.272;17.780;2023-07-28T03:29:23;14.10;99.90
17236;DHT22;8734;59.272;17.780;2023-07-28T03:31:52;14.20;99.90
17236;DHT22;8734;59.272;17.780;2023-07-28T03:34:20;14.20;99.90
17236;DHT22;8734;59.272;17.780;2023-07-28T03:36:48;14.30;99.90
17236;DHT22;8734;59.272;17.780;2023-07-28T03:39:16;14.30;99.90
17236;DHT22;8734;59.272;17.780;2023-07-28T03:41:45;14.40;99.90
17236;DHT22;8734;59.272;17.780;2023-07-28T03:44:15;14.40;99.90
17236;DHT22;8734;59.272;17.780;2023-07-28T03:46:43;14.40;99.90
17236;DHT22;8734;59.272;17.780;2023-07-28T03:49:12;14.50;99.90
17236;DHT22;8734;59.272;17.780;2023-07-28T03:51:40;14.50;99.90
17236;DHT22;8734;59.272;17.780;2023-07-28T03:54:08;14.70;99.90
17236;DHT22;8734;59.272;17.780;2023-07-28T03:56:36;14.70;99.90
17236;DHT22;8734;59.272;17.780;2023-07-28T03:59:04;14.80;99.90
17236;DHT22;8734;59.272;17.780;2023-07-28T04:01:35;14.90;99.90
17236;DHT22;8734;59.272;17.780;2023-07-28T04:04:03;14.90;99.90
17236;DHT22;8734;59.272;17.780;2023-07-28T04:06:42;14.90;99.90
17236;DHT22;8734;59.272;17.780;2023-07-28T04:09:12;14.90;99.90
17236;DHT22;8734;59.272;17.780;2023-07-28T04:11:40;15.00;99.90
17236;DHT22;8734;59.272;17.780;2023-07-28T04:14:09;15.00;99.90
17236;DHT22;8734;59.272;17.780;2023-07-28T04:16:39;15.00;99.90
17236;DHT22;8734;59.272;17.780;2023-07-28T04:19:07;15.00;99.90
17236;DHT22;8734;59.272;17.780;2023-07-28T04:21:36;15.00;99.90
17236;DHT22;8734;59.272;17.780;2023-07-28T04:24:08;15.00;99.90
17236;DHT22;8734;59.272;17.780;2023-07-28T04:26:36;15.10;99.90
17236;DHT22;8734;59.272;17.780;2023-07-28T04:29:05;15.10;99.90
17236;DHT22;8734;59.272;17.780;2023-07-28T04:31:33;15.10;99.90
17236;DHT22;8734;59.272;17.780;2023-07-28T04:34:03;15.00;99.90
17236;DHT22;8734;59.272;17.780;2023-07-28T04:36:31;15.10;99.90
17236;DHT22;8734;59.272;17.780;2023-07-28T04:39:00;15.20;99.90
17236;DHT22;8734;59.272;17.780;2023-07-28T04:41:28;15.40;99.90
17236;DHT22;8734;59.272;17.780;2023-07-28T04:43:57;15.50;99.90
17236;DHT22;8734;59.272;17.780;2023-07-28T04:46:25;15.50;99.90
17236;DHT22;8734;59.272;17.780;2023-07-28T04:48:54;15.60;99.90
17236;DHT22;8734;59.272;17.780;2023-07-28T04:51:23;15.60;99.90
17236;DHT22;8734;59.272;17.780;2023-07-28T04:53:51;15.70;99.90
17236;DHT22;8734;59.272;17.780;2023-07-28T04:56:20;15.80;99.90
17236;DHT22;8734;59.272;17.780;2023-07-28T04:58:48;15.80;99.90
17236;DHT22;8734;59.272;17.780;2023-07-28T05:01:16;15.90;99.90
17236;DHT22;8734;59.272;17.780;2023-07-28T05:03:45;15.80;99.90
17236;DHT22;8734;59.272;17.780;2023-07-28T05:06:13;15.90;99.90
17236;DHT22;8734;59.272;17.780;2023-07-28T05:08:43;15.90;99.90
17236;DHT22;8734;59.272;17.780;2023-07-28T05:11:11;15.90;99.90
17236;DHT22;8734;59.272;17.780;2023-07-28T05:13:40;15.90;99.90
17236;DHT22;8734;59.272;17.780;2023-07-28T05:16:08;15.80;99.90
17236;DHT22;8734;59.272;17.780;2023-07-28T05:18:36;15.80;99.90
17236;DHT22;8734;59.272;17.780;2023-07-28T05:21:05;15.70;99.90
17236;DHT22;8734;59.272;17.780;2023-07-28T05:23:33;15.80;99.90
17236;DHT22;8734;59.272;17.780;2023-07-28T05:26:03;16.00;99.90
17236;DHT22;8734;59.272;17.780;2023-07-28T05:28:33;16.20;99.90
17236;DHT22;8734;59.272;17.780;2023-07-28T05:31:05;16.30;99.90
17236;DHT22;8734;59.272;17.780;2023-07-28T05:33:34;16.40;99.90
17236;DHT22;8734;59.272;17.780;2023-07-28T05:36:03;16.40;99.90
17236;DHT22;8734;59.272;17.780;2023-07-28T05:38:32;16.40;99.90
17236;DHT22;8734;59.272;17.780;2023-07-28T05:41:03;16.40;99.90
17236;DHT22;8734;59.272;17.780;2023-07-28T05:43:32;16.40;99.90
17236;DHT22;8734;59.272;17.780;2023-07-28T05:46:01;16.50;99.90
17236;DHT22;8734;59.272;17.780;2023-07-28T05:48:29;16.60;99.90
17236;DHT22;8734;59.272;17.780;2023-07-28T05:50:58;16.60;99.90
17236;DHT22;8734;59.272;17.780;2023-07-28T05:53:26;16.70;99.90
17236;DHT22;8734;59.272;17.780;2023-07-28T05:55:55;16.90;99.90
17236;DHT22;8734;59.272;17.780;2023-07-28T05:58:24;17.10;99.90
17236;DHT22;8734;59.272;17.780;2023-07-28T06:00:53;17.30;99.90
17236;DHT22;8734;59.272;17.780;2023-07-28T06:03:22;17.60;99.90
17236;DHT22;8734;59.272;17.780;2023-07-28T06:05:50;17.70;99.90
17236;DHT22;8734;59.272;17.780;2023-07-28T06:08:19;17.80;99.90
17236;DHT22;8734;59.272;17.780;2023-07-28T06:10:48;17.80;99.90
17236;DHT22;8734;59.272;17.780;2023-07-28T06:13:16;17.90;99.90
17236;DHT22;8734;59.272;17.780;2023-07-28T06:15:47;17.90;99.90
17236;DHT22;8734;59.272;17.780;2023-07-28T06:18:15;18.10;99.90
17236;DHT22;8734;59.272;17.780;2023-07-28T06:20:44;18.10;99.90
17236;DHT22;8734;59.272;17.780;2023-07-28T06:23:12;18.00;99.90
17236;DHT22;8734;59.272;17.780;2023-07-28T06:25:41;17.90;99.90
17236;DHT22;8734;59.272;17.780;2023-07-28T06:28:11;18.10;99.90
17236;DHT22;8734;59.272;17.780;2023-07-28T06:30:40;18.20;99.90
17236;DHT22;8734;59.272;17.780;2023-07-28T06:33:09;18.10;99.90
17236;DHT22;8734;59.272;17.780;2023-07-28T06:35:38;18.20;99.90
17236;DHT22;8734;59.272;17.780;2023-07-28T06:38:06;18.40;99.90
17236;DHT22;8734;59.272;17.780;2023-07-28T06:40:35;18.40;99.90
17236;DHT22;8734;59.272;17.780;2023-07-28T06:43:04;18.50;99.90
17236;DHT22;8734;59.272;17.780;2023-07-28T06:45:34;18.60;99.90
17236;DHT22;8734;59.272;17.780;2023-07-28T06:48:02;18.70;99.90
17236;DHT22;8734;59.272;17.780;2023-07-28T06:50:32;18.70;99.90
17236;DHT22;8734;59.272;17.780;2023-07-28T06:53:01;18.80;99.90
17236;DHT22;8734;59.272;17.780;2023-07-28T06:55:30;19.00;99.90
17236;DHT22;8734;59.272;17.780;2023-07-28T06:57:58;19.00;99.90
17236;DHT22;8734;59.272;17.780;2023-07-28T07:00:27;18.80;99.90
17236;DHT22;8734;59.272;17.780;2023-07-28T07:02:55;18.70;99.90
17236;DHT22;8734;59.272;17.780;2023-07-28T07:05:23;18.50;99.90
17236;DHT22;8734;59.272;17.780;2023-07-28T07:07:53;18.40;99.90
17236;DHT22;8734;59.272;17.780;2023-07-28T07:10:22;18.30;99.90
17236;DHT22;8734;59.272;17.780;2023-07-28T07:12:50;18.20;99.90
17236;DHT22;8734;59.272;17.780;2023-07-28T07:15:18;18.10;99.90
17236;DHT22;8734;59.272;17.780;2023-07-28T07:17:47;18.00;99.90
17236;DHT22;8734;59.272;17.780;2023-07-28T07:20:15;18.00;99.90
17236;DHT22;8734;59.272;17.780;2023-07-28T07:22:44;17.90;99.90
17236;DHT22;8734;59.272;17.780;2023-07-28T07:25:13;17.90;99.90
17236;DHT22;8734;59.272;17.780;2023-07-28T07:27:42;18.00;99.90
17236;DHT22;8734;59.272;17.780;2023-07-28T07:30:10;17.90;99.90
17236;DHT22;8734;59.272;17.780;2023-07-28T07:32:39;17.90;99.90
17236;DHT22;8734;59.272;17.780;2023-07-28T07:35:08;17.90;99.90
17236;DHT22;8734;59.272;17.780;2023-07-28T07:37:37;17.90;99.90
17236;DHT22;8734;59.272;17.780;2023-07-28T07:40:07;17.90;99.90
17236;DHT22;8734;59.272;17.780;2023-07-28T07:42:44;17.90;99.90
17236;DHT22;8734;59.272;17.780;2023-07-28T07:45:13;17.80;99.90
17236;DHT22;8734;59.272;17.780;2023-07-28T07:47:43;17.90;99.90
17236;DHT22;8734;59.272;17.780;2023-07-28T07:50:11;18.00;99.90
17236;DHT22;8734;59.272;17.780;2023-07-28T07:52:40;18.30;99.90
17236;DHT22;8734;59.272;17.780;2023-07-28T07:55:09;18.80;99.90
17236;DHT22;8734;59.272;17.780;2023-07-28T07:57:39;19.20;99.90
17236;DHT22;8734;59.272;17.780;2023-07-28T08:00:10;19.90;99.90
17236;DHT22;8734;59.272;17.780;2023-07-28T08:02:39;20.10;99.90
17236;DHT22;8734;59.272;17.780;2023-07-28T08:05:11;20.00;99.90
17236;DHT22;8734;59.272;17.780;2023-07-28T08:07:39;20.00;99.90
17236;DHT22;8734;59.272;17.780;2023-07-28T08:10:07;19.70;99.90
17236;DHT22;8734;59.272;17.780;2023-07-28T08:12:36;19.50;99.90
17236;DHT22;8734;59.272;17.780;2023-07-28T08:15:05;19.90;99.90
17236;DHT22;8734;59.272;17.780;2023-07-28T08:17:35;20.10;99.90
17236;DHT22;8734;59.272;17.780;2023-07-28T08:20:05;20.10;99.90
17236;DHT22;8734;59.272;17.780;2023-07-28T08:22:33;19.70;99.90
17236;DHT22;8734;59.272;17.780;2023-07-28T08:25:02;19.50;99.90
17236;DHT22;8734;59.272;17.780;2023-07-28T08:27:31;19.20;99.90
17236;DHT22;8734;59.272;17.780;2023-07-28T08:29:59;18.90;99.90
17236;DHT22;8734;59.272;17.780;2023-07-28T08:32:27;18.70;99.90
17236;DHT22;8734;59.272;17.780;2023-07-28T08:34:58;18.60;99.90
17236;DHT22;8734;59.272;17.780;2023-07-28T08:37:27;18.60;99.90
17236;DHT22;8734;59.272;17.780;2023-07-28T08:39:55;18.70;99.90
17236;DHT22;8734;59.272;17.780;2023-07-28T08:42:23;18.90;99.90
17236;DHT22;8734;59.272;17.780;2023-07-28T08:44:52;19.20;99.90
17236;DHT22;8734;59.272;17.780;2023-07-28T08:47:20;19.50;99.90
17236;DHT22;8734;59.272;17.780;2023-07-28T08:49:48;19.70;99.90
17236;DHT22;8734;59.272;17.780;2023-07-28T08:52:18;19.80;99.90
17236;DHT22;8734;59.272;17.780;2023-07-28T08:54:46;19.80;99.90
17236;DHT22;8734;59.272;17.780;2023-07-28T08:57:15;19.60;99.90
17236;DHT22;8734;59.272;17.780;2023-07-28T08:59:43;19.80;99.90
17236;DHT22;8734;59.272;17.780;2023-07-28T09:02:15;20.10;99.90
17236;DHT22;8734;59.272;17.780;2023-07-28T09:04:45;20.30;99.90
17236;DHT22;8734;59.272;17.780;2023-07-28T09:07:13;20.30;99.90
17236;DHT22;8734;59.272;17.780;2023-07-28T09:09:43;20.10;99.90
17236;DHT22;8734;59.272;17.780;2023-07-28T09:12:13;19.80;99.90
17236;DHT22;8734;59.272;17.780;2023-07-28T09:14:42;19.60;99.90
17236;DHT22;8734;59.272;17.780;2023-07-28T09:17:11;19.70;99.90
17236;DHT22;8734;59.272;17.780;2023-07-28T09:19:51;19.80;99.90
17236;DHT22;8734;59.272;17.780;2023-07-28T09:22:19;20.00;99.90
17236;DHT22;8734;59.272;17.780;2023-07-28T09:24:50;20.30;99.90
17236;DHT22;8734;59.272;17.780;2023-07-28T09:27:20;20.60;99.90
17236;DHT22;8734;59.272;17.780;2023-07-28T09:29:50;20.90;99.90
17236;DHT22;8734;59.272;17.780;2023-07-28T09:32:27;21.00;99.90
17236;DHT22;8734;59.272;17.780;2023-07-28T09:35:10;21.50;99.90
17236;DHT22;8734;59.272;17.780;2023-07-28T09:37:40;21.90;99.90
17236;DHT22;8734;59.272;17.780;2023-07-28T09:40:12;21.80;99.90
17236;DHT22;8734;59.272;17.780;2023-07-28T09:42:42;22.00;99.90
17236;DHT22;8734;59.272;17.780;2023-07-28T09:45:11;22.70;99.90
17236;DHT22;8734;59.272;17.780;2023-07-28T09:48:01;23.70;99.90
17236;DHT22;8734;59.272;17.780;2023-07-28T09:50:32;24.10;99.90
17236;DHT22;8734;59.272;17.780;2023-07-28T09:53:03;23.10;99.90
17236;DHT22;8734;59.272;17.780;2023-07-28T09:55:33;22.80;99.90
17236;DHT22;8734;59.272;17.780;2023-07-28T09:58:04;22.90;99.90
17236;DHT22;8734;59.272;17.780;2023-07-28T10:00:34;22.70;99.90
17236;DHT22;8734;59.272;17.780;2023-07-28T10:03:03;22.40;99.90
17236;DHT22;8734;59.272;17.780;2023-07-28T10:05:33;23.00;99.90
17236;DHT22;8734;59.272;17.780;2023-07-28T10:08:03;23.80;99.90
17236;DHT22;8734;59.272;17.780;2023-07-28T10:10:34;24.60;99.90
17236;DHT22;8734;59.272;17.780;2023-07-28T10:13:02;24.40;99.90
17236;DHT22;8734;59.272;17.780;2023-07-28T10:15:32;23.90;99.90
17236;DHT22;8734;59.272;17.780;2023-07-28T10:18:00;23.50;99.90
17236;DHT22;8734;59.272;17.780;2023-07-28T10:20:30;23.00;99.90
17236;DHT22;8734;59.272;17.780;2023-07-28T10:23:03;22.40;99.90
17236;DHT22;8734;59.272;17.780;2023-07-28T10:25:35;22.10;99.90
17236;DHT22;8734;59.272;17.780;2023-07-28T10:28:04;22.00;99.90
17236;DHT22;8734;59.272;17.780;2023-07-28T10:30:37;21.60;99.90
17236;DHT22;8734;59.272;17.780;2023-07-28T10:33:06;21.20;99.90
17236;DHT22;8734;59.272;17.780;2023-07-28T10:35:47;21.10;99.90
17236;DHT22;8734;59.272;17.780;2023-07-28T10:38:33;20.90;99.90
17236;DHT22;8734;59.272;17.780;2023-07-28T10:41:12;20.70;99.90
17236;DHT22;8734;59.272;17.780;2023-07-28T10:43:42;20.60;99.90
17236;DHT22;8734;59.272;17.780;2023-07-28T10:46:11;20.50;99.90
17236;DHT22;8734;59.272;17.780;2023-07-28T10:48:43;20.30;99.90
17236;DHT22;8734;59.272;17.780;2023-07-28T10:51:19;20.10;99.90
17236;DHT22;8734;59.272;17.780;2023-07-28T10:53:50;19.90;99.90
17236;DHT22;8734;59.272;17.780;2023-07-28T10:56:20;19.70;99.90
17236;DHT22;8734;59.272;17.780;2023-07-28T10:58:56;19.40;99.90
17236;DHT22;8734;59.272;17.780;2023-07-28T11:01:31;19.00;99.90
17236;DHT22;8734;59.272;17.780;2023-07-28T11:04:07;18.50;99.90
17236;DHT22;8734;59.272;17.780;2023-07-28T11:06:37;18.00;99.90
17236;DHT22;8734;59.272;17.780;2023-07-28T11:09:06;17.70;99.90
17236;DHT22;8734;59.272;17.780;2023-07-28T11:11:37;17.50;99.90
17236;DHT22;8734;59.272;17.780;2023-07-28T11:14:06;17.40;99.90
17236;DHT22;8734;59.272;17.780;2023-07-28T11:16:36;17.30;99.90
17236;DHT22;8734;59.272;17.780;2023-07-28T11:19:08;17.10;99.90
17236;DHT22;8734;59.272;17.780;2023-07-28T11:21:37;17.00;99.90
17236;DHT22;8734;59.272;17.780;2023-07-28T11:24:07;16.70;99.90
17236;DHT22;8734;59.272;17.780;2023-07-28T11:26:38;16.60;99.90
17236;DHT22;8734;59.272;17.780;2023-07-28T11:29:07;16.50;99.90
17236;DHT22;8734;59.272;17.780;2023-07-28T11:31:37;16.40;99.90
17236;DHT22;8734;59.272;17.780;2023-07-28T11:34:13;16.50;99.90
17236;DHT22;8734;59.272;17.780;2023-07-28T11:36:42;16.50;99.90
17236;DHT22;8734;59.272;17.780;2023-07-28T11:39:10;16.40;99.90
17236;DHT22;8734;59.272;17.780;2023-07-28T11:41:41;16.30;99.90
17236;DHT22;8734;59.272;17.780;2023-07-28T11:44:11;16.20;99.90
17236;DHT22;8734;59.272;17.780;2023-07-28T11:46:41;16.20;99.90
17236;DHT22;8734;59.272;17.780;2023-07-28T11:49:12;16.10;99.90
17236;DHT22;8734;59.272;17.780;2023-07-28T11:51:41;16.00;99.90
17236;DHT22;8734;59.272;17.780;2023-07-28T11:54:11;16.00;99.90
17236;DHT22;8734;59.272;17.780;2023-07-28T11:56:42;16.00;99.90
17236;DHT22;8734;59.272;17.780;2023-07-28T11:59:12;16.00;99.90
17236;DHT22;8734;59.272;17.780;2023-07-28T12:01:53;15.90;99.90
17236;DHT22;8734;59.272;17.780;2023-07-28T12:04:25;15.80;99.90
17236;DHT22;8734;59.272;17.780;2023-07-28T12:07:05;15.80;99.90
17236;DHT22;8734;59.272;17.780;2023-07-28T12:09:48;15.60;99.90
17236;DHT22;8734;59.272;17.780;2023-07-28T12:12:31;15.70;99.90
17236;DHT22;8734;59.272;17.780;2023-07-28T12:15:21;15.70;99.90
17236;DHT22;8734;59.272;17.780;2023-07-28T12:18:03;15.60;99.90
17236;DHT22;8734;59.272;17.780;2023-07-28T12:20:36;15.60;99.90
17236;DHT22;8734;59.272;17.780;2023-07-28T12:23:06;15.60;99.90
17236;DHT22;8734;59.272;17.780;2023-07-28T12:25:38;15.40;99.90
17236;DHT22;8734;59.272;17.780;2023-07-28T12:28:08;15.40;99.90
17236;DHT22;8734;59.272;17.780;2023-07-28T12:30:40;15.50;99.90
17236;DHT22;8734;59.272;17.780;2023-07-28T12:33:08;15.60;99.90
17236;DHT22;8734;59.272;17.780;2023-07-28T12:35:48;15.50;99.90
17236;DHT22;8734;59.272;17.780;2023-07-28T12:38:17;15.40;99.90
17236;DHT22;8734;59.272;17.780;2023-07-28T12:40:49;15.40;99.90
17236;DHT22;8734;59.272;17.780;2023-07-28T12:43:21;15.40;99.90
17236;DHT22;8734;59.272;17.780;2023-07-28T12:45:54;15.40;99.90
17236;DHT22;8734;59.272;17.780;2023-07-28T12:48:26;15.50;99.90
17236;DHT22;8734;59.272;17.780;2023-07-28T12:50:54;15.50;99.90
17236;DHT22;8734;59.272;17.780;2023-07-28T12:53:25;15.60;99.90
17236;DHT22;8734;59.272;17.780;2023-07-28T12:55:53;15.50;99.90
17236;DHT22;8734;59.272;17.780;2023-07-28T12:58:26;15.60;99.90
17236;DHT22;8734;59.272;17.780;2023-07-28T13:00:58;15.60;99.90
17236;DHT22;8734;59.272;17.780;2023-07-28T13:03:29;15.60;99.90
17236;DHT22;8734;59.272;17.780;2023-07-28T13:05:57;15.70;99.90
17236;DHT22;8734;59.272;17.780;2023-07-28T13:08:26;15.90;99.90
17236;DHT22;8734;59.272;17.780;2023-07-28T13:10:57;16.00;99.90
17236;DHT22;8734;59.272;17.780;2023-07-28T13:13:30;16.20;99.90
17236;DHT22;8734;59.272;17.780;2023-07-28T13:15:59;16.40;99.90
17236;DHT22;8734;59.272;17.780;2023-07-28T13:18:28;16.60;99.90
17236;DHT22;8734;59.272;17.780;2023-07-28T13:20:58;16.70;99.90
17236;DHT22;8734;59.272;17.780;2023-07-28T13:23:26;16.60;99.90
17236;DHT22;8734;59.272;17.780;2023-07-28T13:25:54;16.70;99.90
17236;DHT22;8734;59.272;17.780;2023-07-28T13:28:23;16.90;99.90
17236;DHT22;8734;59.272;17.780;2023-07-28T13:30:54;16.80;99.90
17236;DHT22;8734;59.272;17.780;2023-07-28T13:33:22;16.80;99.90
17236;DHT22;8734;59.272;17.780;2023-07-28T13:35:50;16.80;99.90
17236;DHT22;8734;59.272;17.780;2023-07-28T13:38:19;16.80;99.90
17236;DHT22;8734;59.272;17.780;2023-07-28T13:40:48;16.90;99.90
17236;DHT22;8734;59.272;17.780;2023-07-28T13:43:16;16.90;99.90
17236;DHT22;8734;59.272;17.780;2023-07-28T13:45:44;17.00;99.90
17236;DHT22;8734;59.272;17.780;2023-07-28T13:48:14;17.10;99.90
17236;DHT22;8734;59.272;17.780;2023-07-28T13:50:45;17.10;99.90
17236;DHT22;8734;59.272;17.780;2023-07-28T13:53:17;17.20;99.90
17236;DHT22;8734;59.272;17.780;2023-07-28T13:55:48;17.10;99.90
17236;DHT22;8734;59.272;17.780;2023-07-28T13:58:24;17.10;99.90
17236;DHT22;8734;59.272;17.780;2023-07-28T14:00:52;17.00;99.90
17236;DHT22;8734;59.272;17.780;2023-07-28T14:03:22;16.90;99.90
17236;DHT22;8734;59.272;17.780;2023-07-28T14:05:51;16.90;99.90
17236;DHT22;8734;59.272;17.780;2023-07-28T14:08:19;16.90;99.90
17236;DHT22;8734;59.272;17.780;2023-07-28T14:10:48;17.00;99.90
17236;DHT22;8734;59.272;17.780;2023-07-28T14:13:16;17.20;99.90
17236;DHT22;8734;59.272;17.780;2023-07-28T14:15:44;17.40;99.90
17236;DHT22;8734;59.272;17.780;2023-07-28T14:18:13;17.70;99.90
17236;DHT22;8734;59.272;17.780;2023-07-28T14:20:43;17.90;99.90
17236;DHT22;8734;59.272;17.780;2023-07-28T14:23:29;18.10;99.90
17236;DHT22;8734;59.272;17.780;2023-07-28T14:25:57;18.40;99.90
17236;DHT22;8734;59.272;17.780;2023-07-28T14:28:25;18.60;99.90
17236;DHT22;8734;59.272;17.780;2023-07-28T14:30:54;18.70;99.90
17236;DHT22;8734;59.272;17.780;2023-07-28T14:33:22;19.00;99.90
17236;DHT22;8734;59.272;17.780;2023-07-28T14:35:52;18.90;99.90
17236;DHT22;8734;59.272;17.780;2023-07-28T14:38:20;18.90;99.90
17236;DHT22;8734;59.272;17.780;2023-07-28T14:40:49;19.00;99.90
17236;DHT22;8734;59.272;17.780;2023-07-28T14:43:19;19.20;99.90
17236;DHT22;8734;59.272;17.780;2023-07-28T14:45:49;19.10;99.90
17236;DHT22;8734;59.272;17.780;2023-07-28T14:48:17;19.20;99.90
17236;DHT22;8734;59.272;17.780;2023-07-28T14:50:46;19.40;99.90
17236;DHT22;8734;59.272;17.780;2023-07-28T14:53:32;19.50;99.90
17236;DHT22;8734;59.272;17.780;2023-07-28T14:56:03;19.60;99.90
17236;DHT22;8734;59.272;17.780;2023-07-28T14:58:31;19.40;99.90
17236;DHT22;8734;59.272;17.780;2023-07-28T15:01:00;19.30;99.90
17236;DHT22;8734;59.272;17.780;2023-07-28T15:03:32;19.30;99.90
17236;DHT22;8734;59.272;17.780;2023-07-28T15:06:01;19.20;99.90
17236;DHT22;8734;59.272;17.780;2023-07-28T15:08:31;19.10;99.90
17236;DHT22;8734;59.272;17.780;2023-07-28T15:10:59;19.10;99.90
17236;DHT22;8734;59.272;17.780;2023-07-28T15:13:27;19.00;99.90
17236;DHT22;8734;59.272;17.780;2023-07-28T15:15:56;19.00;99.90
17236;DHT22;8734;59.272;17.780;2023-07-28T15:18:24;19.00;99.90
17236;DHT22;8734;59.272;17.780;2023-07-28T15:20:52;19.00;99.90
17236;DHT22;8734;59.272;17.780;2023-07-28T15:23:23;19.10;99.90
17236;DHT22;8734;59.272;17.780;2023-07-28T15:25:53;19.10;99.90
17236;DHT22;8734;59.272;17.780;2023-07-28T15:28:24;19.20;99.90
17236;DHT22;8734;59.272;17.780;2023-07-28T15:30:53;19.30;99.90
17236;DHT22;8734;59.272;17.780;2023-07-28T15:33:23;19.50;99.90
17236;DHT22;8734;59.272;17.780;2023-07-28T15:35:52;19.70;99.90
17236;DHT22;8734;59.272;17.780;2023-07-28T15:38:20;19.60;99.90
17236;DHT22;8734;59.272;17.780;2023-07-28T15:40:48;19.50;99.90
17236;DHT22;8734;59.272;17.780;2023-07-28T15:43:18;19.20;99.90
17236;DHT22;8734;59.272;17.780;2023-07-28T15:45:46;19.00;99.90
17236;DHT22;8734;59.272;17.780;2023-07-28T15:48:19;18.80;99.90